createdAt,value
2017-08-28T00:01:44.253Z,22.10
2017-08-28T00:04:11.713Z,22.10
2017-08-28T00:06:39.353Z,22.10
2017-08-28T00:09:06.925Z,22.10
2017-08-28T00:11:34.386Z,22.00
2017-08-28T00:14:02.026Z,22.00
2017-08-28T00:16:29.604Z,21.90
2017-08-28T00:18:57.059Z,21.90
2017-08-28T00:21:24.514Z,21.90
2017-08-28T00:23:52.289Z,21.80
2017-08-28T00:26:19.741Z,21.80
2017-08-28T00:28:47.500Z,21.80
2017-08-28T00:31:14.928Z,21.80
2017-08-28T00:33:42.409Z,21.80
2017-08-28T00:36:10.168Z,21.80
2017-08-28T00:38:37.940Z,21.80
2017-08-28T00:41:05.408Z,21.70
2017-08-28T00:43:32.957Z,21.70
2017-08-28T00:46:00.513Z,21.60
2017-08-28T00:48:27.975Z,21.60
2017-08-28T00:50:55.525Z,21.60
2017-08-28T00:53:23.292Z,21.60
2017-08-28T00:55:51.065Z,21.60
2017-08-28T00:58:18.513Z,21.50
2017-08-28T01:00:46.000Z,21.50
2017-08-28T01:03:13.436Z,21.50
2017-08-28T01:05:41.197Z,21.50
2017-08-28T01:08:08.649Z,21.50
2017-08-28T01:10:36.096Z,21.40
2017-08-28T01:13:03.528Z,21.40
2017-08-28T01:15:31.010Z,21.40
2017-08-28T01:17:58.465Z,21.30
2017-08-28T01:20:25.922Z,21.30
2017-08-28T01:22:53.380Z,21.30
2017-08-28T01:25:20.839Z,21.20
2017-08-28T01:27:48.602Z,21.20
2017-08-28T01:30:16.057Z,21.20
2017-08-28T01:32:43.692Z,21.20
2017-08-28T01:35:11.276Z,21.10
2017-08-28T01:37:38.733Z,21.20
2017-08-28T01:40:06.193Z,21.10
2017-08-28T01:42:33.749Z,21.10
2017-08-28T01:45:01.176Z,21.10
2017-08-28T01:47:28.859Z,21.00
2017-08-28T01:49:56.488Z,21.00
2017-08-28T01:52:23.956Z,21.00
2017-08-28T01:54:51.448Z,20.90
2017-08-28T01:57:18.907Z,20.90
2017-08-28T01:59:46.448Z,20.80
2017-08-28T02:02:14.217Z,20.90
2017-08-28T02:04:41.661Z,20.80
2017-08-28T02:07:09.125Z,20.80
2017-08-28T02:09:36.580Z,20.80
2017-08-28T02:12:04.037Z,20.80
2017-08-28T02:14:31.672Z,20.80
2017-08-28T02:16:59.181Z,20.80
2017-08-28T02:19:26.623Z,20.70
2017-08-28T02:21:54.169Z,20.70
2017-08-28T02:24:21.624Z,20.70
2017-08-28T02:26:49.063Z,20.60
2017-08-28T02:29:16.498Z,20.60
2017-08-28T02:31:43.990Z,20.50
2017-08-28T02:34:11.457Z,20.50
2017-08-28T02:36:39.700Z,20.50
2017-08-28T02:39:07.192Z,20.50
2017-08-28T02:41:34.736Z,20.60
2017-08-28T02:44:02.209Z,20.50
2017-08-28T02:46:29.837Z,20.60
2017-08-28T02:48:57.416Z,20.50
2017-08-28T02:51:24.843Z,20.50
2017-08-28T02:53:52.335Z,20.40
2017-08-28T02:56:19.786Z,20.40
2017-08-28T02:58:47.441Z,20.40
2017-08-28T03:01:15.003Z,20.40
2017-08-28T03:03:42.460Z,20.40
2017-08-28T03:06:10.230Z,20.30
2017-08-28T03:08:37.918Z,20.30
2017-08-28T03:11:05.345Z,20.30
2017-08-28T03:13:32.794Z,20.30
2017-08-28T03:16:00.260Z,20.20
2017-08-28T03:18:27.763Z,20.20
2017-08-28T03:20:55.172Z,20.20
2017-08-28T03:23:22.609Z,20.10
2017-08-28T03:25:50.182Z,20.10
2017-08-28T03:28:17.628Z,20.10
2017-08-28T03:30:45.042Z,20.00
2017-08-28T03:33:12.470Z,20.00
2017-08-28T03:35:39.925Z,20.00
2017-08-28T03:38:07.380Z,20.00
2017-08-28T03:40:34.849Z,20.00
2017-08-28T03:43:02.316Z,20.00
2017-08-28T03:45:29.749Z,20.00
2017-08-28T03:47:57.182Z,20.00
2017-08-28T03:50:24.668Z,20.00
2017-08-28T03:52:52.108Z,20.00
2017-08-28T03:55:19.604Z,19.90
2017-08-28T03:57:47.024Z,19.90
2017-08-28T04:00:14.489Z,19.80
2017-08-28T04:02:41.945Z,19.80
2017-08-28T04:05:09.401Z,19.70
2017-08-28T04:07:36.844Z,19.70
2017-08-28T04:10:04.284Z,19.80
2017-08-28T04:12:31.820Z,19.70
2017-08-28T04:14:59.249Z,19.70
2017-08-28T04:17:26.675Z,19.60
2017-08-28T04:19:54.210Z,19.60
2017-08-28T04:22:21.668Z,19.60
2017-08-28T04:24:49.132Z,19.50
2017-08-28T04:27:16.759Z,19.50
2017-08-28T04:29:44.188Z,19.50
2017-08-28T04:32:11.605Z,19.50
2017-08-28T04:34:39.136Z,19.50
2017-08-28T04:37:06.576Z,19.50
2017-08-28T04:39:34.115Z,19.40
2017-08-28T04:42:01.558Z,19.40
2017-08-28T04:44:29.092Z,19.40
2017-08-28T04:46:56.741Z,19.40
2017-08-28T04:49:24.195Z,19.40
2017-08-28T04:51:51.780Z,19.40
2017-08-28T04:54:19.218Z,19.40
2017-08-28T04:56:46.682Z,19.40
2017-08-28T04:59:14.128Z,19.40
2017-08-28T05:01:41.745Z,19.30
2017-08-28T05:04:09.255Z,19.30
2017-08-28T05:06:36.731Z,19.30
2017-08-28T05:09:04.260Z,19.30
2017-08-28T05:11:31.687Z,19.30
2017-08-28T05:13:59.128Z,19.30
2017-08-28T05:16:26.628Z,19.30
2017-08-28T05:18:54.097Z,19.30
2017-08-28T05:21:21.537Z,19.20
2017-08-28T05:23:49.000Z,19.10
2017-08-28T05:26:16.762Z,19.20
2017-08-28T05:28:44.224Z,19.20
2017-08-28T05:31:11.680Z,19.20
2017-08-28T05:33:39.100Z,19.20
2017-08-28T05:36:06.593Z,19.20
2017-08-28T05:38:34.348Z,19.20
2017-08-28T05:41:01.820Z,19.20
2017-08-28T05:43:29.246Z,19.10
2017-08-28T05:45:56.716Z,19.20
2017-08-28T05:48:24.172Z,19.20
2017-08-28T05:50:51.611Z,19.20
2017-08-28T05:53:19.082Z,19.20
2017-08-28T05:55:46.517Z,19.20
2017-08-28T05:58:14.009Z,19.20
2017-08-28T06:00:41.432Z,19.20
2017-08-28T06:03:08.912Z,19.20
2017-08-28T06:05:36.376Z,19.30
2017-08-28T06:08:04.014Z,19.30
2017-08-28T06:10:31.592Z,19.30
2017-08-28T06:12:59.233Z,19.30
2017-08-28T06:15:26.813Z,19.30
2017-08-28T06:17:54.264Z,19.30
2017-08-28T06:20:21.716Z,19.30
2017-08-28T06:22:49.165Z,19.30
2017-08-28T06:25:16.944Z,19.40
2017-08-28T06:27:44.400Z,19.40
2017-08-28T06:30:11.856Z,19.40
2017-08-28T06:32:39.320Z,19.40
2017-08-28T06:35:06.760Z,19.40
2017-08-28T06:37:34.197Z,19.40
2017-08-28T06:40:01.617Z,19.50
2017-08-28T06:42:29.139Z,19.50
2017-08-28T06:44:56.573Z,19.50
2017-08-28T06:47:23.993Z,19.50
2017-08-28T06:49:51.515Z,19.60
2017-08-28T06:52:18.988Z,19.60
2017-08-28T06:54:47.217Z,19.60
2017-08-28T06:57:14.725Z,19.60
2017-08-28T06:59:42.160Z,19.70
2017-08-28T07:02:09.590Z,19.70
2017-08-28T07:04:37.177Z,19.80
2017-08-28T07:07:04.612Z,19.80
2017-08-28T07:09:32.089Z,19.80
2017-08-28T07:11:59.548Z,19.80
2017-08-28T07:14:27.308Z,19.80
2017-08-28T07:16:54.752Z,19.90
2017-08-28T07:19:22.206Z,19.90
2017-08-28T07:21:49.698Z,20.00
2017-08-28T07:24:17.138Z,20.00
2017-08-28T07:26:44.573Z,20.00
2017-08-28T07:29:12.040Z,20.10
2017-08-28T07:31:39.460Z,20.10
2017-08-28T07:34:12.653Z,20.20
2017-08-28T07:36:40.108Z,20.20
2017-08-28T07:39:07.565Z,20.30
2017-08-28T07:41:35.150Z,20.30
2017-08-28T07:44:02.597Z,20.40
2017-08-28T07:46:29.999Z,20.40
2017-08-28T07:48:57.427Z,20.40
2017-08-28T07:51:24.994Z,20.50
2017-08-28T07:53:52.744Z,20.50
2017-08-28T07:56:20.389Z,20.60
2017-08-28T07:58:47.876Z,20.60
2017-08-28T08:01:15.385Z,20.60
2017-08-28T08:03:42.896Z,20.70
2017-08-28T08:06:10.636Z,20.80
2017-08-28T08:08:38.069Z,20.80
2017-08-28T08:11:05.492Z,20.90
2017-08-28T08:13:32.912Z,21.00
2017-08-28T08:16:00.364Z,21.00
2017-08-28T08:18:27.790Z,21.00
2017-08-28T08:20:55.367Z,21.10
2017-08-28T08:23:22.812Z,21.20
2017-08-28T08:25:50.247Z,21.30
2017-08-28T08:28:17.744Z,21.30
2017-08-28T08:30:46.540Z,21.30
2017-08-28T08:33:13.950Z,21.40
2017-08-28T08:35:41.557Z,21.50
2017-08-28T08:38:09.008Z,21.60
2017-08-28T08:40:36.578Z,21.70
2017-08-28T08:43:04.019Z,21.80
2017-08-28T08:45:31.469Z,21.80
2017-08-28T08:47:58.921Z,21.90
2017-08-28T08:50:26.384Z,22.00
2017-08-28T08:52:53.859Z,22.20
2017-08-28T08:55:21.480Z,22.20
2017-08-28T08:57:48.925Z,22.30
2017-08-28T09:00:16.360Z,22.40
2017-08-28T09:02:43.796Z,22.40
2017-08-28T09:05:11.306Z,22.50
2017-08-28T09:07:38.890Z,22.50
2017-08-28T09:10:06.343Z,22.60
2017-08-28T09:12:33.776Z,22.70
2017-08-28T09:15:01.207Z,22.80
2017-08-28T09:17:28.636Z,23.00
2017-08-28T09:19:56.173Z,23.00
2017-08-28T09:22:23.629Z,23.10
2017-08-28T09:24:51.078Z,23.20
2017-08-28T09:27:18.544Z,23.20
2017-08-28T09:29:46.106Z,23.30
2017-08-28T09:32:13.752Z,23.40
2017-08-28T09:34:41.398Z,23.50
2017-08-28T09:37:08.864Z,23.50
2017-08-28T09:39:36.356Z,23.60
2017-08-28T09:42:03.780Z,23.80
2017-08-28T09:44:31.284Z,23.90
2017-08-28T09:46:58.800Z,24.00
2017-08-28T09:49:26.436Z,24.20
2017-08-28T09:51:54.020Z,24.20
2017-08-28T09:54:21.441Z,24.30
2017-08-28T09:56:48.929Z,24.40
2017-08-28T09:59:16.357Z,24.50
2017-08-28T10:01:43.840Z,24.60
2017-08-28T10:04:11.264Z,24.70
2017-08-28T10:06:38.698Z,24.80
2017-08-28T10:09:06.123Z,24.90
2017-08-28T10:11:33.580Z,25.20
2017-08-28T10:14:01.029Z,25.30
2017-08-28T10:16:28.492Z,25.30
2017-08-28T10:18:55.968Z,25.50
2017-08-28T10:21:23.507Z,25.70
2017-08-28T10:23:50.924Z,25.70
2017-08-28T10:26:18.428Z,25.90
2017-08-28T10:28:46.045Z,25.90
2017-08-28T10:31:13.544Z,26.00
2017-08-28T10:33:41.024Z,26.10
2017-08-28T10:36:08.463Z,26.20
2017-08-28T10:38:35.902Z,26.40
2017-08-28T10:41:03.457Z,26.70
2017-08-28T10:43:31.092Z,26.90
2017-08-28T10:45:58.521Z,27.00
2017-08-28T10:48:26.920Z,26.80
2017-08-28T10:50:54.356Z,26.80
2017-08-28T10:53:21.969Z,26.90
2017-08-28T10:55:49.596Z,27.30
2017-08-28T10:58:17.179Z,27.40
2017-08-28T11:00:44.607Z,27.30
2017-08-28T11:03:12.064Z,27.40
2017-08-28T11:05:39.498Z,27.50
2017-08-28T11:08:07.001Z,27.80
2017-08-28T11:10:34.469Z,27.70
2017-08-28T11:13:01.922Z,27.90
2017-08-28T11:15:29.349Z,28.00
2017-08-28T11:17:56.797Z,28.00
2017-08-28T11:20:24.235Z,28.10
2017-08-28T11:22:51.742Z,28.10
2017-08-28T11:25:19.177Z,28.30
2017-08-28T11:27:46.631Z,28.30
2017-08-28T11:30:14.068Z,28.60
2017-08-28T11:32:41.492Z,28.70
2017-08-28T11:35:08.953Z,28.70
2017-08-28T11:37:36.485Z,28.90
2017-08-28T11:40:03.931Z,29.00
2017-08-28T11:42:31.362Z,29.10
2017-08-28T11:44:58.844Z,29.10
2017-08-28T11:47:26.276Z,29.10
2017-08-28T11:49:53.772Z,29.30
2017-08-28T11:52:21.193Z,29.30
2017-08-28T11:54:48.648Z,29.50
2017-08-28T11:57:16.072Z,29.60
2017-08-28T11:59:43.584Z,29.70
2017-08-28T12:02:11.049Z,29.80
2017-08-28T12:04:38.496Z,29.90
2017-08-28T12:07:05.925Z,29.80
2017-08-28T12:09:33.408Z,29.90
2017-08-28T12:12:00.839Z,30.00
2017-08-28T12:14:28.323Z,30.00
2017-08-28T12:16:55.785Z,30.20
2017-08-28T12:19:23.220Z,30.40
2017-08-28T12:21:50.692Z,30.40
2017-08-28T12:24:18.127Z,30.60
2017-08-28T12:26:45.555Z,30.70
2017-08-28T12:29:12.968Z,30.80
2017-08-28T12:31:40.402Z,30.90
2017-08-28T12:34:07.973Z,31.00
2017-08-28T12:36:35.424Z,31.10
2017-08-28T12:39:02.849Z,31.30
2017-08-28T12:41:30.276Z,31.40
2017-08-28T12:43:57.700Z,31.50
2017-08-28T12:46:25.202Z,31.80
2017-08-28T12:48:52.628Z,31.90
2017-08-28T12:51:20.065Z,32.30
2017-08-28T12:53:47.622Z,32.60
2017-08-28T12:56:15.075Z,33.10
2017-08-28T12:58:42.566Z,33.60
2017-08-28T13:01:10.308Z,34.30
2017-08-28T13:03:37.946Z,35.00
2017-08-28T13:06:05.522Z,35.60
2017-08-28T13:08:32.937Z,35.90
2017-08-28T13:11:00.364Z,36.50
2017-08-28T13:13:27.893Z,36.70
2017-08-28T13:15:55.308Z,37.00
2017-08-28T13:18:22.727Z,37.00
2017-08-28T13:20:50.161Z,37.30
2017-08-28T13:23:17.580Z,37.70
2017-08-28T13:25:45.179Z,37.80
2017-08-28T13:28:12.605Z,37.90
2017-08-28T13:30:40.016Z,37.90
2017-08-28T13:33:07.565Z,38.00
2017-08-28T13:35:35.304Z,38.00
2017-08-28T13:38:02.736Z,38.20
2017-08-28T13:40:30.212Z,38.30
2017-08-28T13:42:57.635Z,38.30
2017-08-28T13:45:25.428Z,38.30
2017-08-28T13:47:52.884Z,37.90
2017-08-28T13:50:20.340Z,38.20
2017-08-28T13:52:47.762Z,38.30
2017-08-28T13:55:15.187Z,38.50
2017-08-28T13:57:42.713Z,38.40
2017-08-28T14:00:10.165Z,38.70
2017-08-28T14:02:37.595Z,38.70
2017-08-28T14:05:05.029Z,38.80
2017-08-28T14:07:32.450Z,38.80
2017-08-28T14:09:59.984Z,38.70
2017-08-28T14:12:27.450Z,38.80
2017-08-28T14:14:54.903Z,39.00
2017-08-28T14:17:22.359Z,38.90
2017-08-28T14:19:49.813Z,38.80
2017-08-28T14:22:17.276Z,38.80
2017-08-28T14:24:44.732Z,38.80
2017-08-28T14:27:12.188Z,38.90
2017-08-28T14:29:39.644Z,38.80
2017-08-28T14:32:07.089Z,38.80
2017-08-28T14:34:35.484Z,38.80
2017-08-28T14:37:02.917Z,38.80
2017-08-28T14:39:30.413Z,38.80
2017-08-28T14:41:57.853Z,38.60
2017-08-28T14:44:26.132Z,38.70
2017-08-28T14:46:53.569Z,38.50
2017-08-28T14:49:21.132Z,38.60
2017-08-28T14:51:48.569Z,38.70
2017-08-28T14:54:16.049Z,38.50
2017-08-28T14:56:45.016Z,38.50
2017-08-28T14:59:13.115Z,38.40
2017-08-28T15:01:40.609Z,38.40
2017-08-28T15:04:08.021Z,38.40
2017-08-28T15:06:35.477Z,38.30
2017-08-28T15:09:02.912Z,38.20
2017-08-28T15:11:30.388Z,38.30
2017-08-28T15:13:57.852Z,38.30
2017-08-28T15:16:25.303Z,38.30
2017-08-28T15:18:52.740Z,38.30
2017-08-28T15:21:20.172Z,38.30
2017-08-28T15:23:47.701Z,38.30
2017-08-28T15:26:15.124Z,38.40
2017-08-28T15:28:42.584Z,38.40
2017-08-28T15:31:10.002Z,38.30
2017-08-28T15:33:37.423Z,38.30
2017-08-28T15:36:04.908Z,38.10
2017-08-28T15:38:32.351Z,38.30
2017-08-28T15:40:59.763Z,38.20
2017-08-28T15:43:27.185Z,38.20
2017-08-28T15:45:54.780Z,37.90
2017-08-28T15:48:22.187Z,38.10
2017-08-28T15:50:49.705Z,38.20
2017-08-28T15:53:17.153Z,38.30
2017-08-28T15:55:44.580Z,38.30
2017-08-28T15:58:12.000Z,38.20
2017-08-28T16:00:39.468Z,38.10
2017-08-28T16:03:06.880Z,38.00
2017-08-28T16:05:34.338Z,37.70
2017-08-28T16:08:01.890Z,37.70
2017-08-28T16:10:29.316Z,37.60
2017-08-28T16:12:56.733Z,37.60
2017-08-28T16:15:24.196Z,37.60
2017-08-28T16:17:51.708Z,37.60
2017-08-28T16:20:19.177Z,37.50
2017-08-28T16:22:46.587Z,37.40
2017-08-28T16:25:14.077Z,37.30
2017-08-28T16:27:41.551Z,37.20
2017-08-28T16:30:08.985Z,37.10
2017-08-28T16:32:36.396Z,37.00
2017-08-28T16:35:03.825Z,36.90
2017-08-28T16:37:31.248Z,36.80
2017-08-28T16:39:58.812Z,36.70
2017-08-28T16:42:26.272Z,36.60
2017-08-28T16:44:53.731Z,36.50
2017-08-28T16:47:21.160Z,36.30
2017-08-28T16:49:48.589Z,36.10
2017-08-28T16:52:16.024Z,35.90
2017-08-28T16:54:43.552Z,35.80
2017-08-28T16:57:11.016Z,35.70
2017-08-28T16:59:38.433Z,35.70
2017-08-28T17:02:05.957Z,35.60
2017-08-28T17:04:33.696Z,35.70
2017-08-28T17:07:01.141Z,35.60
2017-08-28T17:09:28.610Z,35.30
2017-08-28T17:11:56.239Z,35.10
2017-08-28T17:14:23.817Z,34.80
2017-08-28T17:16:51.301Z,34.60
2017-08-28T17:19:18.705Z,34.40
2017-08-28T17:21:46.184Z,34.00
2017-08-28T17:24:13.644Z,33.90
2017-08-28T17:26:41.101Z,33.80
2017-08-28T17:29:08.517Z,33.70
2017-08-28T17:31:35.965Z,33.50
2017-08-28T17:34:03.477Z,33.40
2017-08-28T17:36:31.245Z,33.20
2017-08-28T17:38:58.688Z,33.10
2017-08-28T17:41:26.119Z,32.80
2017-08-28T17:43:53.541Z,32.40
2017-08-28T17:46:21.062Z,32.10
2017-08-28T17:48:48.684Z,31.90
2017-08-28T17:51:16.526Z,31.70
2017-08-28T17:53:44.054Z,31.40
2017-08-28T17:56:11.471Z,31.20
2017-08-28T17:58:38.958Z,31.10
2017-08-28T18:01:06.375Z,30.90
2017-08-28T18:03:33.795Z,30.70
2017-08-28T18:06:01.228Z,30.60
2017-08-28T18:08:28.651Z,30.40
2017-08-28T18:10:56.095Z,30.20
2017-08-28T18:13:23.509Z,30.00
2017-08-28T18:15:50.937Z,29.90
2017-08-28T18:18:18.373Z,29.70
2017-08-28T18:20:46.060Z,29.50
2017-08-28T18:23:13.513Z,29.30
2017-08-28T18:25:40.991Z,29.20
2017-08-28T18:28:08.410Z,29.00
2017-08-28T18:30:35.820Z,28.80
2017-08-28T18:33:03.343Z,28.70
2017-08-28T18:35:30.763Z,28.60
2017-08-28T18:37:58.212Z,28.40
2017-08-28T18:40:25.629Z,28.40
2017-08-28T18:42:53.071Z,28.20
2017-08-28T18:45:20.510Z,28.00
2017-08-28T18:47:48.020Z,27.90
2017-08-28T18:50:15.680Z,27.80
2017-08-28T18:52:43.166Z,27.70
2017-08-28T18:55:10.661Z,27.60
2017-08-28T18:57:38.209Z,27.60
2017-08-28T19:00:05.681Z,27.50
2017-08-28T19:02:33.472Z,27.40
2017-08-28T19:05:01.197Z,27.20
2017-08-28T19:07:28.829Z,27.10
2017-08-28T19:09:56.420Z,27.10
2017-08-28T19:12:23.861Z,27.00
2017-08-28T19:14:51.308Z,26.90
2017-08-28T19:17:18.740Z,26.80
2017-08-28T19:19:46.157Z,26.80
2017-08-28T19:22:13.704Z,26.70
2017-08-28T19:24:41.166Z,26.60
2017-08-28T19:27:09.277Z,26.50
2017-08-28T19:29:36.887Z,26.50
2017-08-28T19:32:04.348Z,26.40
2017-08-28T19:34:33.064Z,26.40
2017-08-28T19:37:00.505Z,26.30
2017-08-28T19:39:28.044Z,26.40
2017-08-28T19:41:55.500Z,26.20
2017-08-28T19:44:23.142Z,26.10
2017-08-28T19:46:50.631Z,26.00
2017-08-28T19:49:18.072Z,26.00
2017-08-28T19:51:45.633Z,25.90
2017-08-28T19:54:13.081Z,25.90
2017-08-28T19:56:40.514Z,25.80
2017-08-28T19:59:07.948Z,25.80
2017-08-28T20:01:41.228Z,25.60
2017-08-28T20:04:08.743Z,25.60
2017-08-28T20:06:36.168Z,25.50
2017-08-28T20:09:03.603Z,25.40
2017-08-28T20:11:31.050Z,25.40
2017-08-28T20:13:58.473Z,25.40
2017-08-28T20:16:25.922Z,25.30
2017-08-28T20:18:54.109Z,25.20
2017-08-28T20:21:21.550Z,25.00
2017-08-28T20:23:48.966Z,24.90
2017-08-28T20:26:16.412Z,24.90
2017-08-28T20:28:43.923Z,24.80
2017-08-28T20:31:11.741Z,24.60
2017-08-28T20:33:39.447Z,24.60
2017-08-28T20:36:06.912Z,24.40
2017-08-28T20:38:34.544Z,24.50
2017-08-28T20:41:02.132Z,24.50
2017-08-28T20:43:29.570Z,24.40
2017-08-28T20:45:57.012Z,24.30
2017-08-28T20:48:24.475Z,24.20
2017-08-28T20:50:51.911Z,24.20
2017-08-28T20:53:19.344Z,24.10
2017-08-28T20:55:46.850Z,24.10
2017-08-28T20:58:14.293Z,24.00
2017-08-28T21:00:41.721Z,23.70
2017-08-28T21:06:00.360Z,23.30
2017-08-28T21:08:27.984Z,23.60
2017-08-28T21:10:55.427Z,23.60
2017-08-28T21:13:23.011Z,23.60
2017-08-28T21:15:50.428Z,23.60
2017-08-28T21:18:17.864Z,23.60
2017-08-28T21:20:45.292Z,23.60
2017-08-28T21:23:12.719Z,23.50
2017-08-28T21:25:40.189Z,23.40
2017-08-28T21:28:07.747Z,23.20
2017-08-28T21:30:35.201Z,23.20
2017-08-28T21:33:02.634Z,23.10
2017-08-28T21:35:30.059Z,23.00
2017-08-28T21:37:57.608Z,23.00
2017-08-28T21:40:25.331Z,22.90
2017-08-28T21:42:52.841Z,22.80
2017-08-28T21:45:20.564Z,22.80
2017-08-28T21:47:48.031Z,22.80
2017-08-28T21:50:15.674Z,22.70
2017-08-28T21:52:43.233Z,22.70
2017-08-28T21:55:10.708Z,22.70
2017-08-28T21:57:38.149Z,22.70
2017-08-28T22:00:05.806Z,22.60
2017-08-28T22:02:33.367Z,22.50
2017-08-28T22:05:00.808Z,22.40
2017-08-28T22:07:28.283Z,22.40
2017-08-28T22:09:55.716Z,22.30
2017-08-28T22:12:23.203Z,22.20
2017-08-28T22:14:50.953Z,21.90
2017-08-28T22:17:18.732Z,22.10
2017-08-28T22:19:46.475Z,22.20
2017-08-28T22:22:13.899Z,22.10
2017-08-28T22:24:41.350Z,22.00
2017-08-28T22:27:08.776Z,21.60
2017-08-28T22:29:36.219Z,21.20
2017-08-28T22:32:03.689Z,21.30
2017-08-28T22:34:31.237Z,21.40
2017-08-28T22:36:58.676Z,21.40
2017-08-28T22:39:26.099Z,21.40
2017-08-28T22:41:53.541Z,21.60
2017-08-28T22:44:21.045Z,21.60
2017-08-28T22:46:48.679Z,21.60
2017-08-28T22:49:16.290Z,21.60
2017-08-28T22:51:43.906Z,21.40
2017-08-28T22:54:11.395Z,21.30
2017-08-28T22:56:38.946Z,21.30
2017-08-28T22:59:06.372Z,21.20
2017-08-28T23:01:33.886Z,21.20
2017-08-28T23:04:01.522Z,21.10
2017-08-28T23:06:29.069Z,21.00
2017-08-28T23:08:56.534Z,20.80
2017-08-28T23:11:23.968Z,20.70
2017-08-28T23:13:51.433Z,20.70
2017-08-28T23:16:18.868Z,20.70
2017-08-28T23:18:46.295Z,20.70
2017-08-28T23:21:13.751Z,20.80
2017-08-28T23:23:41.260Z,21.00
2017-08-28T23:26:08.691Z,20.90
2017-08-28T23:28:36.125Z,20.90
2017-08-28T23:31:03.551Z,21.00
2017-08-28T23:33:30.996Z,20.90
2017-08-28T23:35:58.484Z,20.90
2017-08-28T23:38:25.904Z,20.90
2017-08-28T23:40:53.349Z,20.80
2017-08-28T23:43:20.820Z,20.90
2017-08-28T23:45:48.364Z,20.70
2017-08-28T23:48:15.803Z,20.90
2017-08-28T23:50:43.244Z,20.90
2017-08-28T23:53:10.755Z,20.90
2017-08-28T23:55:38.191Z,20.90
2017-08-28T23:58:05.631Z,20.80
